Time;durP1;ratioP1;P1;durP2;ratioP2;P2;SDS_P1;SDS_P2;PMS_P1;PMS_P2;Temp;Humidity;BMP_temperature;BMP_pressure;BME280_temperature;BME280_humidity;BME280_pressure;Samples;Min_cycle;Max_cycle;Signal;HPM_P1;HPM_P2
2022/06/30 00:01:24;;;;;;;12.50;7.78;;;;;;;21.17;60.84;99227.63;5010872;28;20040;-81
2022/06/30 00:03:50;;;;;;;13.30;8.52;;;;;;;20.93;61.68;99229.34;5012368;28;20033;-81
2022/06/30 00:06:15;;;;;;;17.80;8.02;;;;;;;20.94;61.82;99230.16;5011287;28;20026;-81
2022/06/30 00:08:41;;;;;;;16.88;8.43;;;;;;;20.53;63.29;99209.56;5011749;28;20052;-81
2022/06/30 00:11:06;;;;;;;11.38;8.50;;;;;;;20.43;64.38;99219.72;5012097;28;20037;-81
2022/06/30 00:13:37;;;;;;;12.70;8.35;;;;;;;20.35;65.51;99212.44;5010902;28;20025;-81
2022/06/30 00:16:03;;;;;;;8.55;7.43;;;;;;;20.25;66.01;99202.69;5011084;28;20413;-81
2022/06/30 00:18:29;;;;;;;13.32;7.55;;;;;;;20.18;66.83;99214.09;5012134;28;20092;-81
2022/06/30 00:20:54;;;;;;;13.85;8.13;;;;;;;20.06;67.36;99206.78;5011111;28;20073;-81
2022/06/30 00:23:20;;;;;;;13.43;7.18;;;;;;;19.99;67.56;99216.13;5012168;28;20382;-81
2022/06/30 00:25:45;;;;;;;13.13;8.27;;;;;;;20.13;67.35;99215.31;5010693;28;20052;-80
2022/06/30 00:28:11;;;;;;;21.35;9.73;;;;;;;20.12;67.33;99205.16;5012385;28;20037;-81
2022/06/30 00:30:36;;;;;;;13.57;8.73;;;;;;;20.10;67.42;99213.28;5011450;28;20150;-80
2022/06/30 00:33:02;;;;;;;12.10;8.15;;;;;;;19.94;68.15;99205.19;5010792;28;20026;-81
2022/06/30 00:35:27;;;;;;;13.63;7.82;;;;;;;20.04;67.49;99204.38;5012291;28;20152;-81
2022/06/30 00:37:53;;;;;;;29.02;8.38;;;;;;;19.95;67.98;99200.28;5010720;28;20551;-80
2022/06/30 00:40:19;;;;;;;19.17;8.43;;;;;;;20.07;67.54;99211.25;5010582;28;20032;-80
2022/06/30 00:42:44;;;;;;;12.98;8.68;;;;;;;19.83;68.09;99201.50;5010424;28;20022;-81
2022/06/30 00:45:10;;;;;;;12.25;7.75;;;;;;;19.85;68.41;99214.06;5011968;28;20034;-81
2022/06/30 00:47:36;;;;;;;10.63;8.10;;;;;;;19.60;69.16;99206.31;5011953;28;20072;-81
2022/06/30 00:50:03;;;;;;;12.13;8.38;;;;;;;19.76;68.91;99219.34;5011820;28;20030;-81
2022/06/30 00:52:33;;;;;;;9.73;7.63;;;;;;;19.56;69.19;99213.22;5011605;28;20030;-80
2022/06/30 00:54:59;;;;;;;12.32;7.97;;;;;;;19.36;70.11;99205.09;4994196;28;20022;-81
2022/06/30 00:57:26;;;;;;;11.90;7.88;;;;;;;19.42;69.99;99202.66;5011835;28;20021;-80
2022/06/30 00:59:53;;;;;;;11.25;8.50;;;;;;;19.60;69.46;99202.69;5011726;28;20026;-81
2022/06/30 01:02:20;;;;;;;16.63;9.27;;;;;;;19.58;69.40;99200.25;4993511;28;20022;-81
2022/06/30 01:04:47;;;;;;;14.95;8.35;;;;;;;19.74;69.14;99211.22;4993984;28;20144;-80
2022/06/30 01:07:16;;;;;;;9.10;8.00;;;;;;;19.69;68.65;99194.59;4994350;28;20033;-81
2022/06/30 01:12:43;;;;;;;12.45;8.52;;;;;;;19.73;68.33;99201.09;4992420;28;20045;-81
2022/06/30 01:15:11;;;;;;;14.02;8.68;;;;;;;19.83;68.35;99201.50;4974767;28;20036;-80
2022/06/30 01:17:37;;;;;;;12.70;9.13;;;;;;;19.71;68.04;99200.69;4992075;28;20026;-80
2022/06/30 01:20:03;;;;;;;13.88;8.63;;;;;;;19.52;68.85;99206.72;4976021;28;20033;-79
2022/06/30 01:22:28;;;;;;;15.43;9.68;;;;;;;19.42;69.36;99205.50;4997775;28;20029;-81
2022/06/30 01:24:54;;;;;;;16.75;9.95;;;;;;;19.20;69.81;99200.59;4997643;28;20510;-80
2022/06/30 01:27:19;;;;;;;14.38;8.77;;;;;;;19.36;69.13;99199.41;4997648;28;20495;-80
2022/06/30 01:29:46;;;;;;;12.10;8.63;;;;;;;19.61;68.43;99198.63;4996656;28;20515;-80
2022/06/30 01:32:11;;;;;;;13.35;9.45;;;;;;;19.39;68.54;99201.44;5015057;28;20468;-80
2022/06/30 01:34:37;;;;;;;13.77;8.07;;;;;;;19.46;68.20;99200.63;4997495;28;20021;-80
2022/06/30 01:37:04;;;;;;;13.95;9.20;;;;;;;19.45;68.16;99199.84;5015029;28;20041;-80
2022/06/30 01:39:29;;;;;;;9.45;7.47;;;;;;;19.48;68.46;99198.22;4997034;28;20412;-80
2022/06/30 01:41:55;;;;;;;11.70;8.45;;;;;;;19.41;68.34;99195.38;4997685;28;20038;-80
2022/06/30 01:44:20;;;;;;;10.10;7.20;;;;;;;19.46;68.51;99201.47;5014768;28;20049;-80
2022/06/30 01:46:50;;;;;;;11.77;7.63;;;;;;;19.58;67.78;99199.47;5005889;28;20045;-80
2022/06/30 01:49:16;;;;;;;14.80;7.57;;;;;;;19.70;67.53;99196.22;5013654;28;20022;-80
2022/06/30 01:51:43;;;;;;;13.63;7.63;;;;;;;19.77;66.94;99186.91;5013580;28;20213;-80
2022/06/30 01:54:09;;;;;;;13.30;7.80;;;;;;;19.82;66.72;99202.72;5014546;28;20026;-80
2022/06/30 01:56:39;;;;;;;9.23;7.60;;;;;;;19.89;66.05;99191.34;5015032;28;20556;-81
2022/06/30 01:59:05;;;;;;;10.90;7.22;;;;;;;20.11;65.01;99205.56;5013539;28;20029;-81
2022/06/30 02:01:32;;;;;;;13.48;7.85;;;;;;;20.09;64.95;99205.16;5013262;28;20149;-80
2022/06/30 02:04:46;;;;;;;18.83;13.45;;;;;;;20.09;64.52;99190.97;5013504;28;20709;-80
2022/06/30 02:06:47;;;;;;;13.70;7.97;;;;;;;20.25;64.00;99193.38;5014228;28;20025;-80
2022/06/30 02:09:12;;;;;;;9.98;7.57;;;;;;;20.38;63.74;99190.91;5012558;28;20022;-80
2022/06/30 02:11:38;;;;;;;13.02;7.15;;;;;;;20.06;64.38;99189.75;5012606;28;20029;-80
2022/06/30 02:14:04;;;;;;;8.30;7.50;;;;;;;19.73;65.76;99194.59;5014252;28;20026;-80
2022/06/30 02:16:30;;;;;;;11.07;7.05;;;;;;;19.74;65.63;99194.19;5012949;28;20463;-80
2022/06/30 02:18:56;;;;;;;13.85;7.57;;;;;;;19.73;65.86;99192.56;5012764;28;20500;-80
2022/06/30 02:21:21;;;;;;;11.10;7.63;;;;;;;19.64;65.79;99187.31;5012850;28;20026;-80
2022/06/30 02:23:47;;;;;;;11.95;7.38;;;;;;;19.40;66.67;99185.25;5013114;28;20038;-80
2022/06/30 02:26:12;;;;;;;8.93;7.10;;;;;;;19.35;66.91;99189.28;5012855;28;20480;-80
2022/06/30 02:28:38;;;;;;;12.10;7.20;;;;;;;19.35;66.75;99183.63;5012545;28;20021;-80
2022/06/30 02:31:03;;;;;;;10.88;6.97;;;;;;;19.41;66.73;99201.84;5013409;28;20041;-80
2022/06/30 02:33:29;;;;;;;18.73;7.78;;;;;;;19.36;66.77;99182.41;5013972;28;20029;-80
2022/06/30 02:35:54;;;;;;;13.80;7.88;;;;;;;19.50;66.36;99182.41;5012908;28;20491;-81
2022/06/30 02:38:20;;;;;;;11.38;7.30;;;;;;;19.59;65.98;99186.91;5012327;28;20029;-81
2022/06/30 02:40:45;;;;;;;8.75;7.30;;;;;;;19.48;66.17;99179.19;5012095;28;20034;-80
2022/06/30 02:43:11;;;;;;;8.82;6.95;;;;;;;19.61;65.56;99196.63;5010399;28;20080;-81
2022/06/30 02:45:36;;;;;;;12.57;7.10;;;;;;;19.73;65.09;99197.41;5011993;28;20543;-80
2022/06/30 02:48:02;;;;;;;13.48;7.72;;;;;;;19.72;65.28;99199.47;4996080;28;20390;-80
2022/06/30 02:50:28;;;;;;;9.15;7.57;;;;;;;19.66;65.13;99209.56;4996079;28;20397;-81
2022/06/30 02:52:54;;;;;;;13.80;6.65;;;;;;;19.55;65.34;99200.25;5013582;28;20064;-81
2022/06/30 02:55:21;;;;;;;17.45;8.10;;;;;;;19.68;65.17;99209.19;5013905;28;20053;-80
2022/06/30 02:57:47;;;;;;;13.70;7.25;;;;;;;19.78;64.96;99206.34;5014151;28;20056;-80
2022/06/30 03:00:13;;;;;;;16.52;6.53;;;;;;;19.85;64.97;99208.41;5011760;28;20042;-80
2022/06/30 03:02:39;;;;;;;12.77;7.43;;;;;;;19.77;64.97;99206.75;4976491;28;20560;-77
2022/06/30 03:05:07;;;;;;;13.02;7.53;;;;;;;19.81;64.63;99213.25;5010709;28;20112;-78
2022/06/30 03:07:32;;;;;;;7.20;6.50;;;;;;;19.82;64.25;99212.03;4996246;28;20079;-81
2022/06/30 03:09:58;;;;;;;11.15;6.45;;;;;;;19.87;63.75;99207.97;5013416;28;20026;-75
2022/06/30 03:12:23;;;;;;;11.65;7.13;;;;;;;20.01;62.98;99221.41;5013271;28;20092;-76
2022/06/30 03:14:49;;;;;;;14.68;7.47;;;;;;;20.14;62.23;99214.09;5013120;28;20036;-76
2022/06/30 03:17:14;;;;;;;15.38;7.32;;;;;;;20.22;61.97;99195.00;5013108;28;20041;-76
2022/06/30 03:19:40;;;;;;;11.52;7.28;;;;;;;20.33;61.29;99194.97;5012904;28;20409;-77
2022/06/30 03:22:06;;;;;;;13.30;6.35;;;;;;;20.27;61.31;99205.97;4993327;28;20030;-77
2022/06/30 03:24:31;;;;;;;13.05;7.40;;;;;;;20.26;61.59;99204.31;5012943;28;20029;-77
2022/06/30 03:26:58;;;;;;;8.70;6.65;;;;;;;20.17;61.92;99215.31;5012278;28;20032;-79
2022/06/30 03:29:23;;;;;;;15.48;7.95;;;;;;;20.18;62.49;99219.75;5012623;28;20037;-78
2022/06/30 03:31:49;;;;;;;15.02;8.18;;;;;;;19.95;63.55;99205.97;5012562;28;20030;-78
2022/06/30 03:34:15;;;;;;;16.33;7.45;;;;;;;19.99;64.11;99218.94;4995219;28;20049;-79
2022/06/30 03:36:40;;;;;;;13.38;6.90;;;;;;;19.71;65.60;99219.72;4995154;28;20025;-79
2022/06/30 03:39:06;;;;;;;12.02;8.48;;;;;;;19.49;66.17;99202.69;4995249;28;20540;-79
2022/06/30 03:41:31;;;;;;;14.27;6.93;;;;;;;19.02;68.56;99213.88;4994674;28;20038;-79
2022/06/30 03:43:57;;;;;;;10.82;7.97;;;;;;;18.99;69.32;99226.00;5012146;28;20026;-78
2022/06/30 03:46:22;;;;;;;11.30;8.40;;;;;;;18.96;69.42;99210.59;4999615;28;20073;-78
2022/06/30 03:48:48;;;;;;;21.63;8.95;;;;;;;19.19;69.23;99218.81;5012119;28;20111;-78
2022/06/30 03:51:13;;;;;;;14.50;8.25;;;;;;;19.56;68.15;99211.19;5012269;28;20113;-78
2022/06/30 03:53:39;;;;;;;13.55;7.78;;;;;;;19.82;67.34;99216.91;5011384;28;20103;-78
2022/06/30 03:56:05;;;;;;;30.67;9.95;;;;;;;19.63;68.31;99224.56;5012386;28;20053;-79
2022/06/30 03:58:31;;;;;;;13.32;8.93;;;;;;;19.82;68.05;99226.22;5010649;28;20112;-78
2022/06/30 04:00:56;;;;;;;19.40;8.63;;;;;;;20.14;67.25;99238.81;5012069;28;20533;-78
2022/06/30 04:03:22;;;;;;;13.40;10.13;;;;;;;20.03;67.48;99225.47;5011198;28;20026;-79
2022/06/30 04:05:47;;;;;;;15.73;9.68;;;;;;;20.05;67.96;99227.88;5012570;28;20028;-79
2022/06/30 04:08:13;;;;;;;21.83;8.27;;;;;;;20.41;67.06;99232.72;5012129;28;20049;-79
2022/06/30 04:10:38;;;;;;;19.08;8.20;;;;;;;20.22;67.28;99231.13;5012820;28;20021;-79
2022/06/30 04:13:04;;;;;;;13.68;8.15;;;;;;;20.30;67.42;99239.22;5010731;28;20065;-79
2022/06/30 04:15:30;;;;;;;10.05;7.85;;;;;;;20.39;66.63;99226.63;5010697;28;20026;-79
2022/06/30 04:17:57;;;;;;;16.25;8.18;;;;;;;20.48;65.73;99227.00;5012026;28;20025;-79
2022/06/30 04:20:22;;;;;;;13.68;8.23;;;;;;;20.41;65.69;99227.03;5010713;28;20022;-78
2022/06/30 04:22:50;;;;;;;14.93;8.30;;;;;;;20.32;64.60;99244.47;5011563;28;20037;-79
2022/06/30 04:25:16;;;;;;;8.57;7.75;;;;;;;19.96;66.31;99228.28;5010786;28;20056;-79
2022/06/30 04:27:44;;;;;;;12.40;8.75;;;;;;;19.78;67.57;99231.09;5010449;28;20018;-78
2022/06/30 04:30:10;;;;;;;12.82;8.10;;;;;;;20.16;66.84;99237.19;5010391;28;20030;-79
2022/06/30 04:32:39;;;;;;;12.48;9.20;;;;;;;20.29;66.44;99234.75;5010385;28;20109;-79
2022/06/30 04:35:14;;;;;;;13.60;8.18;;;;;;;20.43;66.38;99242.44;5011812;28;20053;-79
2022/06/30 04:37:40;;;;;;;26.75;10.43;;;;;;;20.59;65.90;99227.78;5010421;28;20390;-79
2022/06/30 04:42:51;;;;;;;15.52;8.57;;;;;;;20.86;65.32;99249.28;5011634;28;20103;-79
2022/06/30 04:45:17;;;;;;;11.60;8.25;;;;;;;21.03;64.81;99244.75;5010157;28;20088;-79
2022/06/30 04:47:43;;;;;;;11.80;8.70;;;;;;;21.02;63.61;99255.31;5010214;28;20153;-79
2022/06/30 04:50:09;;;;;;;9.27;8.15;;;;;;;21.14;63.99;99253.22;5011915;28;20034;-79
2022/06/30 04:52:35;;;;;;;10.70;7.43;;;;;;;21.53;62.30;99257.91;5011389;28;20025;-79
2022/06/30 04:55:01;;;;;;;11.82;8.32;;;;;;;21.53;61.96;99259.94;5014585;28;20424;-79
2022/06/30 04:57:27;;;;;;;10.90;8.13;;;;;;;21.56;61.49;99265.63;5014185;28;20033;-79
2022/06/30 04:59:53;;;;;;;21.00;7.97;;;;;;;21.81;61.83;99263.84;5015995;28;20026;-79
2022/06/30 05:02:18;;;;;;;9.07;8.15;;;;;;;22.06;61.21;99262.84;5014879;28;20076;-79
2022/06/30 05:04:44;;;;;;;13.98;8.20;;;;;;;22.29;60.82;99270.81;5015867;28;20032;-79
2022/06/30 05:07:10;;;;;;;10.20;8.77;;;;;;;22.56;58.85;99271.00;5014441;28;20096;-79
2022/06/30 05:09:36;;;;;;;8.60;7.10;;;;;;;22.68;58.71;99261.09;5015388;28;20503;-79
2022/06/30 05:12:02;;;;;;;13.52;7.32;;;;;;;22.89;58.48;99269.84;5013348;28;20026;-78
2022/06/30 05:14:27;;;;;;;10.27;7.30;;;;;;;23.07;57.65;99267.59;5015720;28;20110;-79
2022/06/30 05:16:53;;;;;;;9.77;7.22;;;;;;;23.17;57.92;99267.88;5014274;28;20415;-79
2022/06/30 05:19:18;;;;;;;8.88;6.55;;;;;;;23.28;57.52;99266.53;5015503;28;20053;-79
2022/06/30 05:21:44;;;;;;;11.98;7.78;;;;;;;23.52;57.34;99268.66;5014634;28;20030;-79
2022/06/30 05:26:53;;;;;;;17.55;8.13;;;;;;;23.59;55.76;99271.44;5015994;28;20455;-79
2022/06/30 05:29:18;;;;;;;9.82;7.20;;;;;;;23.47;55.27;99277.72;5015332;28;20101;-79
2022/06/30 05:31:44;;;;;;;10.13;6.47;;;;;;;23.80;54.84;99278.06;5013673;28;20045;-79
2022/06/30 05:34:09;;;;;;;11.20;7.03;;;;;;;23.91;54.91;99281.56;5002065;28;20146;-79
2022/06/30 05:36:35;;;;;;;10.02;6.88;;;;;;;24.00;54.18;99285.91;5006841;28;20041;-79
2022/06/30 05:39:00;;;;;;;8.93;6.72;;;;;;;24.15;53.80;99290.22;5013433;28;20048;-80
2022/06/30 05:41:26;;;;;;;8.82;6.93;;;;;;;24.37;51.27;99284.13;5013200;28;20116;-79
2022/06/30 05:43:52;;;;;;;8.90;6.68;;;;;;;24.47;51.72;99279.47;5013787;28;20033;-80
2022/06/30 05:46:18;;;;;;;7.82;6.10;;;;;;;24.51;52.08;99286.75;5008018;28;20052;-79
2022/06/30 05:48:43;;;;;;;10.18;6.60;;;;;;;24.40;50.04;99294.69;4995190;28;20125;-79
2022/06/30 05:51:09;;;;;;;19.70;6.25;;;;;;;24.59;49.81;99289.47;5009013;28;20076;-79
2022/06/30 05:53:34;;;;;;;7.07;6.38;;;;;;;24.78;49.32;99290.78;5012263;28;20028;-80
2022/06/30 05:56:00;;;;;;;10.85;6.90;;;;;;;25.01;49.92;99284.22;5013970;28;20086;-80
2022/06/30 05:58:25;;;;;;;9.68;6.38;;;;;;;25.18;49.17;99276.53;5007765;28;20026;-78
2022/06/30 06:00:51;;;;;;;8.95;6.30;;;;;;;25.40;49.51;99292.41;5002314;28;20033;-86
2022/06/30 06:03:17;;;;;;;17.38;7.05;;;;;;;24.68;49.35;99286.84;5012239;28;20037;-83
2022/06/30 06:05:42;;;;;;;7.72;6.35;;;;;;;24.85;50.02;99301.28;5011422;28;20032;-78
2022/06/30 06:08:10;;;;;;;10.90;7.38;;;;;;;25.21;50.25;99307.09;5013920;28;20381;-85
2022/06/30 06:10:36;;;;;;;7.05;6.07;;;;;;;25.51;49.82;99304.47;5012482;28;20026;-84
2022/06/30 06:13:02;;;;;;;9.27;6.25;;;;;;;25.51;48.75;99290.97;5011140;28;20029;-85
2022/06/30 06:15:28;;;;;;;12.88;6.05;;;;;;;24.84;49.16;99293.94;5012815;28;20037;-83
2022/06/30 06:17:54;;;;;;;6.82;6.13;;;;;;;24.63;49.95;99278.78;5012518;28;20424;-80
2022/06/30 06:20:19;;;;;;;10.75;5.97;;;;;;;25.14;48.98;99287.22;5012112;28;20068;-80
2022/06/30 06:22:46;;;;;;;8.70;6.22;;;;;;;25.21;48.73;99289.94;5012111;28;20026;-82
2022/06/30 06:25:14;;;;;;;9.77;7.40;;;;;;;25.43;47.13;99278.03;5011917;28;20498;-83
2022/06/30 06:27:40;;;;;;;8.63;6.22;;;;;;;25.77;48.94;99299.81;5011965;28;20032;-79
2022/06/30 06:30:07;;;;;;;12.00;6.47;;;;;;;26.03;47.06;99291.44;4991380;28;20058;-82
2022/06/30 06:32:33;;;;;;;6.80;6.07;;;;;;;26.03;45.12;99294.31;5009306;28;20381;-80
2022/06/30 06:34:59;;;;;;;23.38;6.97;;;;;;;26.24;45.38;99291.38;5001649;28;20095;-75
2022/06/30 06:37:25;;;;;;;8.55;5.82;;;;;;;26.39;45.68;99286.09;5010857;28;20120;-76
2022/06/30 06:39:50;;;;;;;8.77;5.03;;;;;;;26.59;45.21;99291.72;5011303;28;20493;-80
2022/06/30 06:42:16;;;;;;;8.70;5.80;;;;;;;26.76;45.17;99287.56;5011954;28;20026;-80
2022/06/30 06:44:41;;;;;;;11.40;5.75;;;;;;;26.89;44.73;99289.72;5011442;28;20044;-79
2022/06/30 06:47:07;;;;;;;10.32;5.90;;;;;;;26.69;43.14;99290.63;5010989;28;20037;-78
2022/06/30 06:49:32;;;;;;;7.45;5.75;;;;;;;26.39;43.96;99297.56;5012358;28;20026;-80
2022/06/30 06:51:58;;;;;;;9.30;6.18;;;;;;;26.76;45.00;99290.44;5011610;28;20093;-81
2022/06/30 06:54:24;;;;;;;9.63;5.90;;;;;;;27.03;44.72;99288.50;5011265;28;20030;-76
2022/06/30 06:56:49;;;;;;;11.07;5.72;;;;;;;27.21;43.56;99293.75;5012467;28;20061;-78
2022/06/30 06:59:16;;;;;;;13.88;6.07;;;;;;;27.30;44.09;99293.06;5010933;28;20033;-78
2022/06/30 07:01:41;;;;;;;10.25;5.78;;;;;;;27.28;42.91;99287.81;5011663;28;20492;-80
2022/06/30 07:04:07;;;;;;;9.95;5.93;;;;;;;27.48;43.06;99295.41;5012007;28;20033;-79
2022/06/30 07:06:33;;;;;;;5.93;5.38;;;;;;;27.59;42.95;99280.78;5012069;28;20030;-75
2022/06/30 07:08:59;;;;;;;10.00;5.85;;;;;;;27.52;43.94;99290.38;5011240;28;20034;-78
2022/06/30 07:11:24;;;;;;;6.80;6.20;;;;;;;27.53;44.72;99291.16;5010352;28;20034;-78
2022/06/30 07:13:50;;;;;;;11.30;6.10;;;;;;;27.68;44.92;99280.09;5010878;28;20049;-78
2022/06/30 07:16:15;;;;;;;13.75;6.72;;;;;;;27.79;42.97;99269.06;5010825;28;20420;-80
2022/06/30 07:18:41;;;;;;;10.27;5.88;;;;;;;27.03;45.08;99277.84;5009602;28;20100;-78
2022/06/30 07:21:06;;;;;;;9.57;5.90;;;;;;;27.47;46.72;99279.44;5012912;28;20073;-76
2022/06/30 07:23:32;;;;;;;10.73;5.45;;;;;;;27.88;44.67;99277.81;5013392;28;20030;-76
2022/06/30 07:25:58;;;;;;;21.58;6.22;;;;;;;28.14;43.32;99277.78;5012791;28;20528;-76
2022/06/30 07:28:24;;;;;;;16.70;7.95;;;;;;;28.35;42.96;99280.44;5012991;28;20084;-77
2022/06/30 07:30:49;;;;;;;10.60;5.90;;;;;;;28.40;42.68;99271.19;5011926;28;20065;-78
2022/06/30 07:33:14;;;;;;;11.77;6.82;;;;;;;28.36;41.85;99277.09;5008937;28;20033;-80
2022/06/30 07:35:40;;;;;;;8.02;5.63;;;;;;;28.48;42.56;99266.00;5005793;28;20030;-80
2022/06/30 07:38:06;;;;;;;8.27;6.53;;;;;;;28.49;41.12;99267.63;5012963;28;20025;-78
2022/06/30 07:40:32;;;;;;;18.92;6.45;;;;;;;28.23;42.40;99261.91;5010766;28;20038;-85
2022/06/30 07:42:57;;;;;;;6.13;5.53;;;;;;;28.45;39.94;99270.63;5012295;28;20022;-86
2022/06/30 07:45:24;;;;;;;23.45;6.32;;;;;;;28.69;40.43;99270.22;5005824;28;20022;-82
2022/06/30 07:47:51;;;;;;;8.57;4.97;;;;;;;28.82;36.63;99271.00;5009036;28;20550;-79
2022/06/30 07:50:17;;;;;;;15.25;5.10;;;;;;;28.84;37.36;99265.56;4993895;28;20040;-82
2022/06/30 07:52:43;;;;;;;6.55;5.18;;;;;;;29.06;39.22;99259.03;5008574;28;20053;-83
2022/06/30 07:55:09;;;;;;;7.47;5.20;;;;;;;29.01;36.23;99268.25;4989415;28;20037;-82
2022/06/30 07:57:42;;;;;;;5.43;4.85;;;;;;;29.35;36.78;99272.34;5003497;28;20104;-82
2022/06/30 08:00:09;;;;;;;9.02;5.50;;;;;;;28.83;37.05;99278.38;4994921;28;20073;-82
2022/06/30 08:02:35;;;;;;;13.07;5.25;;;;;;;28.67;37.57;99267.78;5011717;28;20056;-82
2022/06/30 08:05:00;;;;;;;11.45;5.20;;;;;;;29.19;38.28;99261.03;4992770;28;20449;-84
2022/06/30 08:07:26;;;;;;;5.95;5.32;;;;;;;29.27;37.36;99266.06;4992435;28;20040;-80
2022/06/30 08:09:51;;;;;;;10.90;5.10;;;;;;;29.62;37.49;99249.97;5002145;28;20113;-83
2022/06/30 08:12:17;;;;;;;14.18;5.97;;;;;;;29.83;37.73;99260.63;4993225;28;20065;-79
2022/06/30 08:14:44;;;;;;;12.77;5.90;;;;;;;30.21;37.43;99264.44;5003707;28;20469;-81
2022/06/30 08:17:09;;;;;;;7.00;4.68;;;;;;;30.23;36.29;99264.81;5013198;28;20038;-79
2022/06/30 08:19:35;;;;;;;10.65;5.10;;;;;;;30.26;36.10;99268.78;4994208;28;20033;-79
2022/06/30 08:22:00;;;;;;;10.43;5.47;;;;;;;29.47;34.65;99255.47;5012131;28;20120;-74
2022/06/30 08:24:27;;;;;;;11.15;5.50;;;;;;;29.98;37.56;99268.69;4993970;28;20104;-78
2022/06/30 08:26:52;;;;;;;24.00;5.63;;;;;;;30.09;37.49;99246.00;5011459;28;20038;-77
2022/06/30 08:29:18;;;;;;;7.57;5.22;;;;;;;30.30;37.29;99260.81;4997411;28;20080;-76
2022/06/30 08:31:44;;;;;;;8.10;5.30;;;;;;;30.46;36.25;99264.69;4993517;28;20530;-78
2022/06/30 08:34:09;;;;;;;6.32;5.72;;;;;;;30.54;36.71;99257.31;5012033;28;20022;-75
2022/06/30 08:36:35;;;;;;;6.13;5.10;;;;;;;30.53;35.27;99261.50;5011936;28;20045;-76
2022/06/30 08:39:01;;;;;;;11.55;5.07;;;;;;;30.54;36.20;99261.00;4995218;28;20021;-73
2022/06/30 08:44:12;;;;;;;9.27;4.57;;;;;;;30.39;32.55;99260.81;5005852;28;20113;-75
2022/06/30 08:46:38;;;;;;;11.30;5.40;;;;;;;30.47;32.46;99258.44;5010673;28;20033;-76
2022/06/30 08:49:05;;;;;;;9.68;5.13;;;;;;;30.49;33.88;99260.81;5011478;28;20022;-76
2022/06/30 08:51:35;;;;;;;7.70;4.40;;;;;;;30.34;33.82;99261.44;5001330;28;20975;-78
2022/06/30 08:54:02;;;;;;;10.88;4.57;;;;;;;30.38;33.93;99262.09;4977169;28;20041;-75
2022/06/30 08:56:34;;;;;;;9.60;5.18;;;;;;;30.65;34.24;99263.47;5012601;28;20030;-79
2022/06/30 08:59:03;;;;;;;7.22;4.82;;;;;;;30.67;33.02;99266.66;5012626;28;20357;-78
2022/06/30 09:01:29;;;;;;;10.00;4.93;;;;;;;30.66;32.51;99262.16;4974567;28;20492;-75
2022/06/30 09:03:58;;;;;;;6.55;4.60;;;;;;;30.75;33.50;99251.91;4995676;28;20025;-83
2022/06/30 09:06:23;;;;;;;6.18;4.40;;;;;;;30.75;31.85;99261.38;4994642;28;20468;-77
2022/06/30 09:08:50;;;;;;;9.75;4.22;;;;;;;31.08;32.03;99251.25;4994213;28;20033;-78
2022/06/30 09:11:16;;;;;;;7.00;4.75;;;;;;;31.17;32.49;99254.13;4994431;28;20076;-81
2022/06/30 09:13:45;;;;;;;15.60;4.32;;;;;;;31.39;33.51;99256.03;5011993;28;20041;-75
2022/06/30 09:16:11;;;;;;;11.82;4.40;;;;;;;31.08;33.59;99254.13;4978432;28;20034;-76
2022/06/30 09:18:38;;;;;;;11.65;4.70;;;;;;;31.50;34.27;99246.84;4994077;28;20504;-78
2022/06/30 09:21:22;;;;;;;10.57;4.50;;;;;;;31.88;34.02;99248.34;4993854;28;20028;-80
2022/06/30 09:23:48;;;;;;;9.63;4.85;;;;;;;31.97;33.09;99247.50;4991700;28;20521;-76
2022/06/30 09:26:22;;;;;;;8.50;5.18;;;;;;;32.11;33.11;99251.75;4974275;28;20046;-75
2022/06/30 09:28:54;;;;;;;6.07;4.22;;;;;;;32.27;33.78;99259.22;4992207;28;20027;-75
2022/06/30 09:31:38;;;;;;;9.20;4.05;;;;;;;32.35;32.61;99256.78;4974424;28;20121;-76
2022/06/30 09:34:16;;;;;;;26.38;4.93;;;;;;;32.06;32.09;99256.13;4992079;28;20038;-72
2022/06/30 09:36:42;;;;;;;12.95;4.20;;;;;;;32.39;31.87;99247.94;5008716;28;20026;-78
2022/06/30 09:39:10;;;;;;;10.40;4.32;;;;;;;32.20;30.07;99256.69;4992785;28;20554;-82
2022/06/30 09:41:41;;;;;;;5.03;4.10;;;;;;;32.41;29.84;99249.06;5011985;28;20025;-76
2022/06/30 09:44:15;;;;;;;4.85;4.00;;;;;;;32.60;29.59;99252.63;5013287;28;20549;-77
2022/06/30 09:47:20;;;;;;;13.88;3.88;;;;;;;32.66;28.51;99251.91;4995309;28;20084;-77
2022/06/30 09:49:49;;;;;;;14.70;4.18;;;;;;;32.83;29.21;99250.19;4988249;28;20046;-78
2022/06/30 09:52:19;;;;;;;;;;;;;;;32.88;29.83;99255.28;4976712;28;20568;-80
2022/06/30 09:55:00;;;;;;;6.63;4.18;;;;;;;32.84;29.82;99246.00;4992027;28;19968;-76
2022/06/30 09:57:38;;;;;;;7.68;4.13;;;;;;;32.72;30.14;99242.06;4976135;28;20061;-77
2022/06/30 10:00:09;;;;;;;14.65;3.95;;;;;;;32.89;29.78;99238.72;4975709;28;20034;-77
2022/06/30 10:02:41;;;;;;;9.45;4.82;;;;;;;32.87;29.43;99239.19;4976612;28;20037;-79
2022/06/30 10:05:09;;;;;;;17.58;4.85;;;;;;;33.09;29.92;99232.28;4976129;28;20040;-77
2022/06/30 10:07:37;;;;;;;9.10;4.40;;;;;;;33.09;29.16;99223.59;4996947;28;20465;-78
2022/06/30 10:10:13;;;;;;;6.22;4.22;;;;;;;33.35;29.90;99225.06;4976139;28;20044;-78
2022/06/30 10:12:40;;;;;;;5.28;4.18;;;;;;;33.42;29.29;99225.47;4995221;28;20093;-79
2022/06/30 10:15:08;;;;;;;9.15;4.53;;;;;;;33.43;30.21;99227.09;5002469;28;20101;-78
2022/06/30 10:17:48;;;;;;;6.53;4.45;;;;;;;33.50;28.54;99223.00;4979584;28;20027;-79
2022/06/30 10:20:15;;;;;;;6.57;4.63;;;;;;;33.50;27.94;99204.81;4976048;28;20033;-78
2022/06/30 10:22:41;;;;;;;7.30;4.13;;;;;;;33.34;27.63;99215.59;5003372;28;20040;-78
2022/06/30 10:25:06;;;;;;;10.65;5.20;;;;;;;33.13;28.90;99206.78;4994372;28;20140;-78
2022/06/30 10:27:32;;;;;;;8.05;5.03;;;;;;;33.42;29.88;99201.50;5012259;28;20779;-78
2022/06/30 10:30:03;;;;;;;13.80;5.40;;;;;;;33.03;28.45;99216.88;5012871;28;20244;-78
2022/06/30 10:32:35;;;;;;;8.65;4.78;;;;;;;33.40;29.08;99204.88;5013327;28;20028;-80
2022/06/30 10:35:31;;;;;;;4.38;3.97;;;;;;;33.80;28.91;99198.97;4995447;28;20026;-81
2022/06/30 10:38:09;;;;;;;6.70;4.60;;;;;;;33.74;28.26;99196.00;4972785;28;20037;-79
2022/06/30 10:40:53;;;;;;;5.35;4.80;;;;;;;33.83;28.48;99200.84;4996257;28;20453;-85
2022/06/30 10:43:19;;;;;;;6.35;5.18;;;;;;;33.85;27.84;99189.56;4996226;28;20030;-81
2022/06/30 10:45:54;;;;;;;11.82;4.82;;;;;;;33.75;28.19;99185.97;4994646;28;20069;-77
2022/06/30 10:48:20;;;;;;;9.25;5.47;;;;;;;33.94;29.00;99189.44;4996028;28;20033;-80
2022/06/30 10:50:46;;;;;;;7.30;4.82;;;;;;;33.86;29.14;99185.34;5013499;28;20028;-79
2022/06/30 10:53:37;;;;;;;4.55;4.00;;;;;;;34.15;28.15;99181.56;4988668;28;20026;-86
2022/06/30 10:56:03;;;;;;;7.30;4.70;;;;;;;34.44;27.96;99176.13;4988686;28;20096;-85
2022/06/30 10:58:28;;;;;;;34.80;6.63;;;;;;;34.36;27.97;99172.06;4998748;28;20030;-85
2022/06/30 11:01:00;;;;;;;7.30;5.40;;;;;;;34.26;26.53;99175.09;4995103;28;20515;-84
2022/06/30 11:06:11;;;;;;;12.88;5.22;;;;;;;33.84;26.58;99182.94;5013490;28;20349;-86
2022/06/30 11:08:37;;;;;;;9.25;4.55;;;;;;;33.69;26.87;99176.38;4990160;28;20019;-85
2022/06/30 11:11:21;;;;;;;6.78;4.15;;;;;;;34.08;28.23;99169.59;4975922;28;20026;-86
2022/06/30 11:14:14;;;;;;;8.20;4.53;;;;;;;34.17;26.78;99157.88;4981670;28;20030;-86
2022/06/30 11:16:40;;;;;;;10.57;4.72;;;;;;;34.21;27.26;99151.81;5012827;28;20032;-86
2022/06/30 11:19:15;;;;;;;10.07;5.43;;;;;;;34.20;26.38;99151.03;4993146;28;20033;-85
2022/06/30 11:21:44;;;;;;;7.85;5.20;;;;;;;34.10;28.25;99155.38;4995143;28;20112;-86
2022/06/30 11:24:10;;;;;;;;;;;;;;;34.28;26.09;99154.28;4995478;28;20077;-86
2022/06/30 11:29:23;;;;;;;4.97;3.97;;;;;;;34.39;26.66;99145.72;4993249;28;20033;-85
2022/06/30 11:31:50;;;;;;;6.13;4.78;;;;;;;34.24;24.79;99148.72;5007424;28;20030;-86
2022/06/30 11:34:20;;;;;;;15.85;4.57;;;;;;;34.39;26.63;99139.09;4995037;28;20025;-87
2022/06/30 11:36:46;;;;;;;6.43;3.65;;;;;;;34.60;24.75;99151.53;5012593;28;20095;-86
2022/06/30 11:39:20;;;;;;;6.20;3.97;;;;;;;34.65;24.61;99138.41;4994826;28;20467;-86
2022/06/30 11:41:59;;;;;;;7.88;3.78;;;;;;;35.01;22.26;99147.72;4994928;28;20389;-87
2022/06/30 11:44:37;;;;;;;7.00;3.53;;;;;;;35.18;22.00;99150.00;4993342;28;20030;-87
2022/06/30 11:47:07;;;;;;;12.45;3.83;;;;;;;35.20;24.00;99141.56;4986301;28;20093;-88